sensor_id;sensor_type;location;lat;lon;timestamp;P1;durP1;ratioP1;P2;durP2;ratioP2
60722;SDS011;46574;52.818;6.516;2024-03-22T00:00:32;40.58;;;27.75;;
60722;SDS011;46574;52.818;6.516;2024-03-22T00:02:58;38.28;;;26.33;;
60722;SDS011;46574;52.818;6.516;2024-03-22T00:05:23;42.55;;;28.77;;
60722;SDS011;46574;52.818;6.516;2024-03-22T00:07:49;40.15;;;28.15;;
60722;SDS011;46574;52.818;6.516;2024-03-22T00:10:15;44.20;;;29.17;;
60722;SDS011;46574;52.818;6.516;2024-03-22T00:12:40;42.03;;;28.35;;
60722;SDS011;46574;52.818;6.516;2024-03-22T00:15:06;42.45;;;29.35;;
60722;SDS011;46574;52.818;6.516;2024-03-22T00:17:32;42.60;;;28.83;;
60722;SDS011;46574;52.818;6.516;2024-03-22T00:19:58;45.35;;;29.63;;
60722;SDS011;46574;52.818;6.516;2024-03-22T00:22:25;47.72;;;31.23;;
60722;SDS011;46574;52.818;6.516;2024-03-22T00:24:50;45.28;;;30.95;;
60722;SDS011;46574;52.818;6.516;2024-03-22T00:27:16;49.28;;;31.05;;
60722;SDS011;46574;52.818;6.516;2024-03-22T00:29:42;46.45;;;30.85;;
60722;SDS011;46574;52.818;6.516;2024-03-22T00:32:08;48.97;;;32.72;;
60722;SDS011;46574;52.818;6.516;2024-03-22T00:34:34;47.65;;;31.48;;
60722;SDS011;46574;52.818;6.516;2024-03-22T00:37:00;47.72;;;31.80;;
60722;SDS011;46574;52.818;6.516;2024-03-22T00:39:26;47.20;;;30.75;;
60722;SDS011;46574;52.818;6.516;2024-03-22T00:41:51;46.45;;;30.67;;
60722;SDS011;46574;52.818;6.516;2024-03-22T00:44:17;44.15;;;31.05;;
60722;SDS011;46574;52.818;6.516;2024-03-22T00:46:43;48.55;;;32.83;;
60722;SDS011;46574;52.818;6.516;2024-03-22T00:49:08;51.25;;;32.28;;
60722;SDS011;46574;52.818;6.516;2024-03-22T00:51:34;49.47;;;33.10;;
60722;SDS011;46574;52.818;6.516;2024-03-22T00:54:00;49.28;;;33.28;;
60722;SDS011;46574;52.818;6.516;2024-03-22T00:56:25;54.78;;;33.58;;
60722;SDS011;46574;52.818;6.516;2024-03-22T00:58:51;53.75;;;32.97;;
60722;SDS011;46574;52.818;6.516;2024-03-22T01:01:17;52.25;;;34.40;;
60722;SDS011;46574;52.818;6.516;2024-03-22T01:03:42;52.03;;;34.00;;
60722;SDS011;46574;52.818;6.516;2024-03-22T01:06:08;52.58;;;34.63;;
60722;SDS011;46574;52.818;6.516;2024-03-22T01:08:34;55.92;;;34.88;;
60722;SDS011;46574;52.818;6.516;2024-03-22T01:10:59;55.95;;;34.70;;
60722;SDS011;46574;52.818;6.516;2024-03-22T01:13:26;52.45;;;33.92;;
60722;SDS011;46574;52.818;6.516;2024-03-22T01:15:51;55.13;;;35.63;;
60722;SDS011;46574;52.818;6.516;2024-03-22T01:18:17;55.40;;;36.08;;
60722;SDS011;46574;52.818;6.516;2024-03-22T01:20:43;52.42;;;34.67;;
60722;SDS011;46574;52.818;6.516;2024-03-22T01:23:09;57.78;;;37.28;;
60722;SDS011;46574;52.818;6.516;2024-03-22T01:25:34;55.30;;;35.55;;
60722;SDS011;46574;52.818;6.516;2024-03-22T01:28:00;55.42;;;34.88;;
60722;SDS011;46574;52.818;6.516;2024-03-22T01:30:26;56.15;;;35.90;;
60722;SDS011;46574;52.818;6.516;2024-03-22T01:32:55;56.50;;;36.15;;
60722;SDS011;46574;52.818;6.516;2024-03-22T01:35:21;55.42;;;35.63;;
60722;SDS011;46574;52.818;6.516;2024-03-22T01:37:46;57.50;;;36.55;;
60722;SDS011;46574;52.818;6.516;2024-03-22T01:40:12;61.17;;;37.80;;
60722;SDS011;46574;52.818;6.516;2024-03-22T01:42:38;56.97;;;37.35;;
60722;SDS011;46574;52.818;6.516;2024-03-22T01:45:04;56.55;;;35.55;;
60722;SDS011;46574;52.818;6.516;2024-03-22T01:47:30;56.60;;;37.08;;
60722;SDS011;46574;52.818;6.516;2024-03-22T01:49:56;60.58;;;38.67;;
60722;SDS011;46574;52.818;6.516;2024-03-22T01:52:22;58.58;;;36.47;;
60722;SDS011;46574;52.818;6.516;2024-03-22T01:54:49;64.70;;;39.33;;
60722;SDS011;46574;52.818;6.516;2024-03-22T01:57:15;57.45;;;37.28;;
60722;SDS011;46574;52.818;6.516;2024-03-22T01:59:41;60.60;;;37.28;;
60722;SDS011;46574;52.818;6.516;2024-03-22T02:02:07;57.17;;;36.90;;
60722;SDS011;46574;52.818;6.516;2024-03-22T02:04:33;58.97;;;38.92;;
60722;SDS011;46574;52.818;6.516;2024-03-22T02:06:58;64.55;;;39.40;;
60722;SDS011;46574;52.818;6.516;2024-03-22T02:09:24;59.92;;;38.38;;
60722;SDS011;46574;52.818;6.516;2024-03-22T02:11:50;59.33;;;38.47;;
60722;SDS011;46574;52.818;6.516;2024-03-22T02:14:16;60.38;;;38.28;;
60722;SDS011;46574;52.818;6.516;2024-03-22T02:16:42;60.05;;;37.67;;
60722;SDS011;46574;52.818;6.516;2024-03-22T02:19:08;63.13;;;40.00;;
60722;SDS011;46574;52.818;6.516;2024-03-22T02:21:34;62.53;;;40.50;;
60722;SDS011;46574;52.818;6.516;2024-03-22T02:24:00;58.10;;;36.22;;
60722;SDS011;46574;52.818;6.516;2024-03-22T02:26:25;64.78;;;40.17;;
60722;SDS011;46574;52.818;6.516;2024-03-22T02:28:51;61.03;;;40.00;;
60722;SDS011;46574;52.818;6.516;2024-03-22T02:31:17;65.55;;;40.40;;
60722;SDS011;46574;52.818;6.516;2024-03-22T02:33:42;65.72;;;40.25;;
60722;SDS011;46574;52.818;6.516;2024-03-22T02:36:08;65.40;;;40.50;;
60722;SDS011;46574;52.818;6.516;2024-03-22T02:38:34;70.18;;;43.83;;
60722;SDS011;46574;52.818;6.516;2024-03-22T02:41:00;60.85;;;38.72;;
60722;SDS011;46574;52.818;6.516;2024-03-22T02:43:26;65.88;;;40.88;;
60722;SDS011;46574;52.818;6.516;2024-03-22T02:45:51;67.82;;;42.70;;
60722;SDS011;46574;52.818;6.516;2024-03-22T02:48:17;64.93;;;41.28;;
60722;SDS011;46574;52.818;6.516;2024-03-22T02:50:43;67.20;;;41.75;;
60722;SDS011;46574;52.818;6.516;2024-03-22T02:53:08;63.05;;;42.70;;
60722;SDS011;46574;52.818;6.516;2024-03-22T02:55:38;63.95;;;41.22;;
60722;SDS011;46574;52.818;6.516;2024-03-22T02:58:05;65.63;;;41.00;;
60722;SDS011;46574;52.818;6.516;2024-03-22T03:00:31;64.38;;;40.42;;
60722;SDS011;46574;52.818;6.516;2024-03-22T03:03:00;65.32;;;42.70;;
60722;SDS011;46574;52.818;6.516;2024-03-22T03:05:26;65.93;;;41.72;;
60722;SDS011;46574;52.818;6.516;2024-03-22T03:07:51;61.15;;;41.50;;
60722;SDS011;46574;52.818;6.516;2024-03-22T03:10:17;65.75;;;40.67;;
60722;SDS011;46574;52.818;6.516;2024-03-22T03:12:43;65.15;;;40.70;;
60722;SDS011;46574;52.818;6.516;2024-03-22T03:15:08;64.68;;;40.80;;
60722;SDS011;46574;52.818;6.516;2024-03-22T03:17:34;64.80;;;41.75;;
60722;SDS011;46574;52.818;6.516;2024-03-22T03:20:00;69.40;;;42.78;;
60722;SDS011;46574;52.818;6.516;2024-03-22T03:22:25;66.85;;;43.13;;
60722;SDS011;46574;52.818;6.516;2024-03-22T03:24:51;63.10;;;42.17;;
60722;SDS011;46574;52.818;6.516;2024-03-22T03:27:17;65.65;;;42.42;;
60722;SDS011;46574;52.818;6.516;2024-03-22T03:29:42;65.55;;;40.88;;
60722;SDS011;46574;52.818;6.516;2024-03-22T03:32:08;66.47;;;41.47;;
60722;SDS011;46574;52.818;6.516;2024-03-22T03:34:34;68.10;;;41.63;;
60722;SDS011;46574;52.818;6.516;2024-03-22T03:36:59;67.03;;;42.17;;
60722;SDS011;46574;52.818;6.516;2024-03-22T03:39:26;66.05;;;41.08;;
60722;SDS011;46574;52.818;6.516;2024-03-22T03:41:52;65.90;;;41.38;;
60722;SDS011;46574;52.818;6.516;2024-03-22T03:44:18;65.28;;;42.00;;
60722;SDS011;46574;52.818;6.516;2024-03-22T03:46:43;61.67;;;40.15;;
60722;SDS011;46574;52.818;6.516;2024-03-22T03:49:09;65.10;;;40.05;;
60722;SDS011;46574;52.818;6.516;2024-03-22T03:51:35;64.47;;;41.40;;
60722;SDS011;46574;52.818;6.516;2024-03-22T03:54:01;68.47;;;41.60;;
60722;SDS011;46574;52.818;6.516;2024-03-22T03:56:26;63.95;;;41.03;;
60722;SDS011;46574;52.818;6.516;2024-03-22T03:58:52;63.88;;;40.42;;
60722;SDS011;46574;52.818;6.516;2024-03-22T04:01:19;63.67;;;40.83;;
60722;SDS011;46574;52.818;6.516;2024-03-22T04:03:45;64.30;;;40.30;;
60722;SDS011;46574;52.818;6.516;2024-03-22T04:06:10;61.22;;;38.80;;
60722;SDS011;46574;52.818;6.516;2024-03-22T04:08:36;66.78;;;40.83;;
60722;SDS011;46574;52.818;6.516;2024-03-22T04:11:02;64.57;;;39.97;;
60722;SDS011;46574;52.818;6.516;2024-03-22T04:13:29;63.85;;;40.40;;
60722;SDS011;46574;52.818;6.516;2024-03-22T04:15:58;63.95;;;39.15;;
60722;SDS011;46574;52.818;6.516;2024-03-22T04:18:24;62.03;;;40.25;;
60722;SDS011;46574;52.818;6.516;2024-03-22T04:20:57;62.00;;;39.70;;
60722;SDS011;46574;52.818;6.516;2024-03-22T04:23:24;64.07;;;39.97;;
60722;SDS011;46574;52.818;6.516;2024-03-22T04:25:54;64.88;;;40.08;;
60722;SDS011;46574;52.818;6.516;2024-03-22T04:28:24;61.55;;;38.92;;
60722;SDS011;46574;52.818;6.516;2024-03-22T04:33:26;64.07;;;39.80;;
60722;SDS011;46574;52.818;6.516;2024-03-22T04:35:55;66.35;;;40.55;;
60722;SDS011;46574;52.818;6.516;2024-03-22T04:38:21;62.83;;;39.15;;
60722;SDS011;46574;52.818;6.516;2024-03-22T04:40:47;61.30;;;39.03;;
60722;SDS011;46574;52.818;6.516;2024-03-22T04:43:14;67.90;;;40.42;;
60722;SDS011;46574;52.818;6.516;2024-03-22T04:45:42;63.17;;;40.30;;
60722;SDS011;46574;52.818;6.516;2024-03-22T04:48:08;67.72;;;41.25;;
60722;SDS011;46574;52.818;6.516;2024-03-22T04:50:33;69.88;;;40.97;;
60722;SDS011;46574;52.818;6.516;2024-03-22T04:52:59;66.63;;;40.83;;
60722;SDS011;46574;52.818;6.516;2024-03-22T04:55:24;67.18;;;40.53;;
60722;SDS011;46574;52.818;6.516;2024-03-22T04:57:51;70.45;;;41.40;;
60722;SDS011;46574;52.818;6.516;2024-03-22T05:00:17;68.80;;;40.25;;
60722;SDS011;46574;52.818;6.516;2024-03-22T05:02:43;68.22;;;40.55;;
60722;SDS011;46574;52.818;6.516;2024-03-22T05:05:09;68.13;;;40.25;;
60722;SDS011;46574;52.818;6.516;2024-03-22T05:07:35;73.00;;;41.30;;
60722;SDS011;46574;52.818;6.516;2024-03-22T05:10:01;70.75;;;41.70;;
60722;SDS011;46574;52.818;6.516;2024-03-22T05:12:26;64.68;;;39.38;;
60722;SDS011;46574;52.818;6.516;2024-03-22T05:14:52;65.80;;;39.97;;
60722;SDS011;46574;52.818;6.516;2024-03-22T05:17:18;64.05;;;38.95;;
60722;SDS011;46574;52.818;6.516;2024-03-22T05:19:43;66.65;;;38.75;;
60722;SDS011;46574;52.818;6.516;2024-03-22T05:22:09;67.65;;;39.03;;
60722;SDS011;46574;52.818;6.516;2024-03-22T05:24:34;61.95;;;39.38;;
60722;SDS011;46574;52.818;6.516;2024-03-22T05:27:00;62.75;;;38.53;;
60722;SDS011;46574;52.818;6.516;2024-03-22T05:29:26;60.40;;;38.00;;
60722;SDS011;46574;52.818;6.516;2024-03-22T05:31:52;59.50;;;36.67;;
60722;SDS011;46574;52.818;6.516;2024-03-22T05:34:18;61.13;;;36.75;;
60722;SDS011;46574;52.818;6.516;2024-03-22T05:36:44;57.78;;;35.00;;
60722;SDS011;46574;52.818;6.516;2024-03-22T05:39:11;64.53;;;38.27;;
60722;SDS011;46574;52.818;6.516;2024-03-22T05:41:37;65.90;;;38.75;;
60722;SDS011;46574;52.818;6.516;2024-03-22T05:44:03;68.20;;;38.38;;
60722;SDS011;46574;52.818;6.516;2024-03-22T05:46:30;67.53;;;37.05;;
60722;SDS011;46574;52.818;6.516;2024-03-22T05:48:57;60.65;;;35.75;;
60722;SDS011;46574;52.818;6.516;2024-03-22T05:51:23;63.30;;;35.03;;
60722;SDS011;46574;52.818;6.516;2024-03-22T05:53:49;64.40;;;34.85;;
60722;SDS011;46574;52.818;6.516;2024-03-22T05:56:15;61.67;;;34.08;;
60722;SDS011;46574;52.818;6.516;2024-03-22T05:58:41;64.30;;;36.05;;
60722;SDS011;46574;52.818;6.516;2024-03-22T06:01:06;64.72;;;36.13;;
60722;SDS011;46574;52.818;6.516;2024-03-22T06:03:32;68.20;;;35.67;;
60722;SDS011;46574;52.818;6.516;2024-03-22T06:05:58;61.78;;;33.95;;
60722;SDS011;46574;52.818;6.516;2024-03-22T06:08:28;62.50;;;36.20;;
60722;SDS011;46574;52.818;6.516;2024-03-22T06:13:20;58.53;;;33.92;;
60722;SDS011;46574;52.818;6.516;2024-03-22T06:15:48;59.10;;;35.35;;
60722;SDS011;46574;52.818;6.516;2024-03-22T06:18:14;60.88;;;34.30;;
60722;SDS011;46574;52.818;6.516;2024-03-22T06:20:40;59.55;;;33.10;;
60722;SDS011;46574;52.818;6.516;2024-03-22T06:23:07;59.85;;;33.70;;
60722;SDS011;46574;52.818;6.516;2024-03-22T06:25:33;58.05;;;33.47;;
60722;SDS011;46574;52.818;6.516;2024-03-22T06:27:59;59.38;;;33.80;;
60722;SDS011;46574;52.818;6.516;2024-03-22T06:30:25;61.67;;;33.78;;
60722;SDS011;46574;52.818;6.516;2024-03-22T06:32:51;54.25;;;32.83;;
60722;SDS011;46574;52.818;6.516;2024-03-22T06:35:17;61.05;;;33.13;;
60722;SDS011;46574;52.818;6.516;2024-03-22T06:37:42;52.83;;;31.38;;
60722;SDS011;46574;52.818;6.516;2024-03-22T06:40:08;53.85;;;32.67;;
60722;SDS011;46574;52.818;6.516;2024-03-22T06:42:35;56.85;;;32.30;;
60722;SDS011;46574;52.818;6.516;2024-03-22T06:45:00;54.05;;;31.02;;
60722;SDS011;46574;52.818;6.516;2024-03-22T06:47:27;56.92;;;32.28;;
60722;SDS011;46574;52.818;6.516;2024-03-22T06:49:53;55.97;;;31.52;;
60722;SDS011;46574;52.818;6.516;2024-03-22T06:52:18;52.03;;;30.90;;
60722;SDS011;46574;52.818;6.516;2024-03-22T06:54:45;52.70;;;30.75;;
60722;SDS011;46574;52.818;6.516;2024-03-22T06:57:11;51.30;;;30.27;;
60722;SDS011;46574;52.818;6.516;2024-03-22T06:59:36;50.15;;;30.83;;
60722;SDS011;46574;52.818;6.516;2024-03-22T07:02:02;50.22;;;29.08;;
60722;SDS011;46574;52.818;6.516;2024-03-22T07:04:28;52.25;;;30.27;;
60722;SDS011;46574;52.818;6.516;2024-03-22T07:06:54;50.72;;;29.42;;
60722;SDS011;46574;52.818;6.516;2024-03-22T07:09:20;49.45;;;29.58;;
60722;SDS011;46574;52.818;6.516;2024-03-22T07:11:46;50.28;;;29.15;;
60722;SDS011;46574;52.818;6.516;2024-03-22T07:14:11;44.88;;;27.90;;
60722;SDS011;46574;52.818;6.516;2024-03-22T07:16:37;46.03;;;28.15;;
60722;SDS011;46574;52.818;6.516;2024-03-22T07:19:03;48.25;;;29.40;;
60722;SDS011;46574;52.818;6.516;2024-03-22T07:21:29;45.33;;;26.42;;
60722;SDS011;46574;52.818;6.516;2024-03-22T07:23:55;47.92;;;27.45;;
60722;SDS011;46574;52.818;6.516;2024-03-22T07:26:21;43.30;;;27.58;;
60722;SDS011;46574;52.818;6.516;2024-03-22T07:28:47;45.15;;;26.27;;
60722;SDS011;46574;52.818;6.516;2024-03-22T07:31:13;44.20;;;25.65;;
60722;SDS011;46574;52.818;6.516;2024-03-22T07:33:39;45.17;;;25.95;;
60722;SDS011;46574;52.818;6.516;2024-03-22T07:36:05;42.22;;;24.35;;
60722;SDS011;46574;52.818;6.516;2024-03-22T07:38:31;41.85;;;26.00;;
60722;SDS011;46574;52.818;6.516;2024-03-22T07:40:57;41.30;;;25.20;;
60722;SDS011;46574;52.818;6.516;2024-03-22T07:43:22;41.15;;;25.42;;
60722;SDS011;46574;52.818;6.516;2024-03-22T07:45:48;39.33;;;23.95;;
60722;SDS011;46574;52.818;6.516;2024-03-22T07:48:14;37.70;;;23.77;;
60722;SDS011;46574;52.818;6.516;2024-03-22T07:50:40;40.38;;;23.27;;
60722;SDS011;46574;52.818;6.516;2024-03-22T07:53:06;37.03;;;23.63;;
60722;SDS011;46574;52.818;6.516;2024-03-22T07:55:32;36.53;;;22.45;;
60722;SDS011;46574;52.818;6.516;2024-03-22T07:57:58;35.78;;;22.48;;
60722;SDS011;46574;52.818;6.516;2024-03-22T08:00:24;38.97;;;23.85;;
60722;SDS011;46574;52.818;6.516;2024-03-22T08:05:18;35.08;;;22.33;;
60722;SDS011;46574;52.818;6.516;2024-03-22T08:07:44;36.38;;;21.98;;
60722;SDS011;46574;52.818;6.516;2024-03-22T08:10:10;35.75;;;21.48;;
60722;SDS011;46574;52.818;6.516;2024-03-22T08:12:36;33.28;;;22.17;;
60722;SDS011;46574;52.818;6.516;2024-03-22T08:15:02;37.80;;;22.45;;
60722;SDS011;46574;52.818;6.516;2024-03-22T08:17:27;33.30;;;21.15;;
60722;SDS011;46574;52.818;6.516;2024-03-22T08:19:53;37.85;;;22.02;;
60722;SDS011;46574;52.818;6.516;2024-03-22T08:22:19;37.95;;;22.05;;
60722;SDS011;46574;52.818;6.516;2024-03-22T08:24:44;39.50;;;21.67;;
60722;SDS011;46574;52.818;6.516;2024-03-22T08:27:10;35.10;;;21.70;;
60722;SDS011;46574;52.818;6.516;2024-03-22T08:29:37;39.08;;;22.45;;
60722;SDS011;46574;52.818;6.516;2024-03-22T08:32:03;37.58;;;22.17;;
60722;SDS011;46574;52.818;6.516;2024-03-22T08:34:30;33.72;;;22.02;;
60722;SDS011;46574;52.818;6.516;2024-03-22T08:36:57;32.92;;;20.73;;
60722;SDS011;46574;52.818;6.516;2024-03-22T08:39:23;35.22;;;20.05;;
60722;SDS011;46574;52.818;6.516;2024-03-22T08:41:49;33.60;;;19.95;;
60722;SDS011;46574;52.818;6.516;2024-03-22T08:44:19;32.95;;;19.75;;
60722;SDS011;46574;52.818;6.516;2024-03-22T08:46:45;35.42;;;19.30;;
60722;SDS011;46574;52.818;6.516;2024-03-22T08:49:11;38.70;;;19.48;;
60722;SDS011;46574;52.818;6.516;2024-03-22T08:51:37;35.40;;;19.17;;
60722;SDS011;46574;52.818;6.516;2024-03-22T08:54:03;34.90;;;19.63;;
60722;SDS011;46574;52.818;6.516;2024-03-22T08:56:29;32.63;;;18.40;;
60722;SDS011;46574;52.818;6.516;2024-03-22T08:58:55;31.98;;;18.85;;
60722;SDS011;46574;52.818;6.516;2024-03-22T09:01:20;30.77;;;19.05;;
60722;SDS011;46574;52.818;6.516;2024-03-22T09:03:47;35.42;;;19.70;;
60722;SDS011;46574;52.818;6.516;2024-03-22T09:06:14;28.20;;;17.65;;
60722;SDS011;46574;52.818;6.516;2024-03-22T09:08:40;34.90;;;19.70;;
60722;SDS011;46574;52.818;6.516;2024-03-22T09:11:05;32.47;;;19.25;;
60722;SDS011;46574;52.818;6.516;2024-03-22T09:13:31;34.58;;;19.80;;
60722;SDS011;46574;52.818;6.516;2024-03-22T09:15:59;33.75;;;19.27;;
60722;SDS011;46574;52.818;6.516;2024-03-22T09:18:25;35.15;;;20.17;;
60722;SDS011;46574;52.818;6.516;2024-03-22T09:20:52;35.28;;;20.83;;
60722;SDS011;46574;52.818;6.516;2024-03-22T09:23:18;37.95;;;21.27;;
60722;SDS011;46574;52.818;6.516;2024-03-22T09:25:45;36.97;;;20.65;;
60722;SDS011;46574;52.818;6.516;2024-03-22T09:28:12;36.60;;;21.25;;
60722;SDS011;46574;52.818;6.516;2024-03-22T09:30:38;34.15;;;20.70;;
60722;SDS011;46574;52.818;6.516;2024-03-22T09:33:05;30.92;;;19.30;;
60722;SDS011;46574;52.818;6.516;2024-03-22T09:35:32;34.08;;;19.80;;
60722;SDS011;46574;52.818;6.516;2024-03-22T09:38:01;32.03;;;18.10;;
60722;SDS011;46574;52.818;6.516;2024-03-22T09:40:27;33.83;;;19.02;;
60722;SDS011;46574;52.818;6.516;2024-03-22T09:42:55;30.60;;;17.90;;
60722;SDS011;46574;52.818;6.516;2024-03-22T09:45:26;32.03;;;18.80;;
60722;SDS011;46574;52.818;6.516;2024-03-22T09:47:52;30.30;;;18.90;;
60722;SDS011;46574;52.818;6.516;2024-03-22T09:50:20;26.33;;;18.33;;
60722;SDS011;46574;52.818;6.516;2024-03-22T09:52:46;26.55;;;17.60;;
60722;SDS011;46574;52.818;6.516;2024-03-22T09:55:13;30.15;;;18.67;;
60722;SDS011;46574;52.818;6.516;2024-03-22T09:57:39;29.08;;;18.17;;
60722;SDS011;46574;52.818;6.516;2024-03-22T10:00:07;30.10;;;18.67;;
60722;SDS011;46574;52.818;6.516;2024-03-22T10:02:34;29.25;;;19.55;;
60722;SDS011;46574;52.818;6.516;2024-03-22T10:05:00;30.55;;;18.05;;
60722;SDS011;46574;52.818;6.516;2024-03-22T10:07:29;28.73;;;17.98;;
60722;SDS011;46574;52.818;6.516;2024-03-22T10:09:58;31.27;;;19.35;;
60722;SDS011;46574;52.818;6.516;2024-03-22T10:12:24;29.70;;;18.55;;
60722;SDS011;46574;52.818;6.516;2024-03-22T10:17:18;27.33;;;18.50;;
60722;SDS011;46574;52.818;6.516;2024-03-22T10:19:44;29.48;;;19.42;;
60722;SDS011;46574;52.818;6.516;2024-03-22T10:22:10;25.95;;;17.13;;
60722;SDS011;46574;52.818;6.516;2024-03-22T10:24:35;26.80;;;18.05;;
60722;SDS011;46574;52.818;6.516;2024-03-22T10:27:01;28.38;;;17.30;;
60722;SDS011;46574;52.818;6.516;2024-03-22T10:29:27;25.15;;;18.55;;
60722;SDS011;46574;52.818;6.516;2024-03-22T10:31:54;24.88;;;16.13;;
60722;SDS011;46574;52.818;6.516;2024-03-22T10:34:20;23.52;;;16.20;;
60722;SDS011;46574;52.818;6.516;2024-03-22T10:36:49;24.92;;;16.52;;
60722;SDS011;46574;52.818;6.516;2024-03-22T10:39:18;22.45;;;16.10;;
60722;SDS011;46574;52.818;6.516;2024-03-22T10:41:47;20.25;;;14.73;;
60722;SDS011;46574;52.818;6.516;2024-03-22T10:44:13;22.58;;;13.75;;
60722;SDS011;46574;52.818;6.516;2024-03-22T10:46:43;19.02;;;13.48;;
60722;SDS011;46574;52.818;6.516;2024-03-22T10:49:12;18.25;;;13.02;;
60722;SDS011;46574;52.818;6.516;2024-03-22T10:51:45;16.77;;;12.38;;
60722;SDS011;46574;52.818;6.516;2024-03-22T10:54:20;17.35;;;11.85;;
60722;SDS011;46574;52.818;6.516;2024-03-22T10:56:48;15.63;;;11.77;;
60722;SDS011;46574;52.818;6.516;2024-03-22T10:59:18;15.10;;;10.10;;
60722;SDS011;46574;52.818;6.516;2024-03-22T11:01:48;11.98;;;9.35;;
60722;SDS011;46574;52.818;6.516;2024-03-22T11:04:19;13.50;;;10.10;;
60722;SDS011;46574;52.818;6.516;2024-03-22T11:06:51;12.90;;;9.55;;
60722;SDS011;46574;52.818;6.516;2024-03-22T11:09:23;12.10;;;8.70;;
60722;SDS011;46574;52.818;6.516;2024-03-22T11:11:54;9.60;;;8.60;;
60722;SDS011;46574;52.818;6.516;2024-03-22T11:14:21;12.38;;;8.52;;
60722;SDS011;46574;52.818;6.516;2024-03-22T11:16:49;10.88;;;8.38;;
60722;SDS011;46574;52.818;6.516;2024-03-22T11:19:15;11.40;;;8.32;;
60722;SDS011;46574;52.818;6.516;2024-03-22T11:21:41;10.02;;;7.28;;
60722;SDS011;46574;52.818;6.516;2024-03-22T11:24:07;11.10;;;8.70;;
60722;SDS011;46574;52.818;6.516;2024-03-22T11:26:33;9.20;;;7.57;;
60722;SDS011;46574;52.818;6.516;2024-03-22T11:28:59;10.38;;;8.00;;
60722;SDS011;46574;52.818;6.516;2024-03-22T11:31:25;10.70;;;7.85;;
60722;SDS011;46574;52.818;6.516;2024-03-22T11:33:55;12.15;;;8.70;;
60722;SDS011;46574;52.818;6.516;2024-03-22T11:36:22;10.90;;;8.02;;
60722;SDS011;46574;52.818;6.516;2024-03-22T11:38:48;11.55;;;8.00;;
60722;SDS011;46574;52.818;6.516;2024-03-22T11:41:19;10.23;;;7.88;;
60722;SDS011;46574;52.818;6.516;2024-03-22T11:43:49;8.48;;;6.68;;
60722;SDS011;46574;52.818;6.516;2024-03-22T11:46:15;8.85;;;6.28;;
60722;SDS011;46574;52.818;6.516;2024-03-22T11:48:41;7.43;;;5.85;;
60722;SDS011;46574;52.818;6.516;2024-03-22T11:51:08;7.57;;;5.82;;
60722;SDS011;46574;52.818;6.516;2024-03-22T11:53:35;8.43;;;5.88;;
60722;SDS011;46574;52.818;6.516;2024-03-22T11:56:01;7.78;;;5.78;;
60722;SDS011;46574;52.818;6.516;2024-03-22T11:58:28;6.82;;;5.50;;
60722;SDS011;46574;52.818;6.516;2024-03-22T12:00:55;6.97;;;5.22;;
60722;SDS011;46574;52.818;6.516;2024-03-22T12:03:22;7.20;;;5.68;;
60722;SDS011;46574;52.818;6.516;2024-03-22T12:05:48;7.40;;;5.82;;
60722;SDS011;46574;52.818;6.516;2024-03-22T12:08:16;7.47;;;5.75;;
60722;SDS011;46574;52.818;6.516;2024-03-22T12:10:43;5.95;;;4.93;;
60722;SDS011;46574;52.818;6.516;2024-03-22T12:13:09;6.25;;;5.30;;
60722;SDS011;46574;52.818;6.516;2024-03-22T12:15:34;6.80;;;5.68;;
60722;SDS011;46574;52.818;6.516;2024-03-22T12:18:00;6.88;;;5.50;;
60722;SDS011;46574;52.818;6.516;2024-03-22T12:20:27;6.63;;;5.60;;
60722;SDS011;46574;52.818;6.516;2024-03-22T12:22:52;6.45;;;5.10;;
60722;SDS011;46574;52.818;6.516;2024-03-22T12:25:18;6.65;;;4.82;;
60722;SDS011;46574;52.818;6.516;2024-03-22T12:27:46;5.32;;;4.25;;
60722;SDS011;46574;52.818;6.516;2024-03-22T12:30:12;5.90;;;5.13;;
60722;SDS011;46574;52.818;6.516;2024-03-22T12:32:38;5.70;;;4.70;;
60722;SDS011;46574;52.818;6.516;2024-03-22T12:35:04;5.95;;;4.50;;
60722;SDS011;46574;52.818;6.516;2024-03-22T12:37:30;5.68;;;3.72;;
60722;SDS011;46574;52.818;6.516;2024-03-22T12:39:55;5.30;;;3.83;;
60722;SDS011;46574;52.818;6.516;2024-03-22T12:42:21;5.25;;;3.45;;
60722;SDS011;46574;52.818;6.516;2024-03-22T12:44:47;5.68;;;3.30;;
60722;SDS011;46574;52.818;6.516;2024-03-22T12:47:13;5.43;;;3.20;;
60722;SDS011;46574;52.818;6.516;2024-03-22T12:49:39;5.40;;;2.60;;
60722;SDS011;46574;52.818;6.516;2024-03-22T12:52:05;7.55;;;3.30;;
60722;SDS011;46574;52.818;6.516;2024-03-22T12:54:32;6.47;;;3.17;;
60722;SDS011;46574;52.818;6.516;2024-03-22T12:56:57;5.13;;;3.38;;
60722;SDS011;46574;52.818;6.516;2024-03-22T12:59:23;6.80;;;3.80;;
60722;SDS011;46574;52.818;6.516;2024-03-22T13:01:48;6.20;;;2.90;;
60722;SDS011;46574;52.818;6.516;2024-03-22T13:04:14;5.78;;;3.10;;
60722;SDS011;46574;52.818;6.516;2024-03-22T13:06:40;6.07;;;3.10;;
60722;SDS011;46574;52.818;6.516;2024-03-22T13:09:05;6.90;;;3.60;;
60722;SDS011;46574;52.818;6.516;2024-03-22T13:11:34;7.70;;;3.63;;
60722;SDS011;46574;52.818;6.516;2024-03-22T13:14:00;6.32;;;3.33;;
60722;SDS011;46574;52.818;6.516;2024-03-22T13:16:26;8.50;;;4.38;;
60722;SDS011;46574;52.818;6.516;2024-03-22T13:18:52;8.48;;;4.43;;
60722;SDS011;46574;52.818;6.516;2024-03-22T13:21:18;7.97;;;4.03;;
60722;SDS011;46574;52.818;6.516;2024-03-22T13:23:44;9.93;;;4.40;;
60722;SDS011;46574;52.818;6.516;2024-03-22T13:26:10;8.88;;;4.28;;
60722;SDS011;46574;52.818;6.516;2024-03-22T13:28:36;10.13;;;4.53;;
60722;SDS011;46574;52.818;6.516;2024-03-22T13:31:02;10.13;;;4.50;;
60722;SDS011;46574;52.818;6.516;2024-03-22T13:33:31;9.95;;;5.22;;
60722;SDS011;46574;52.818;6.516;2024-03-22T13:35:58;11.48;;;5.13;;
60722;SDS011;46574;52.818;6.516;2024-03-22T13:38:24;9.52;;;5.07;;
60722;SDS011;46574;52.818;6.516;2024-03-22T13:40:56;11.20;;;5.60;;
60722;SDS011;46574;52.818;6.516;2024-03-22T13:43:23;13.68;;;5.95;;
60722;SDS011;46574;52.818;6.516;2024-03-22T13:45:51;9.35;;;5.35;;
60722;SDS011;46574;52.818;6.516;2024-03-22T13:48:19;11.93;;;5.65;;
60722;SDS011;46574;52.818;6.516;2024-03-22T13:50:49;11.02;;;6.22;;
60722;SDS011;46574;52.818;6.516;2024-03-22T13:53:18;11.25;;;5.47;;
60722;SDS011;46574;52.818;6.516;2024-03-22T13:55:43;11.65;;;6.30;;
60722;SDS011;46574;52.818;6.516;2024-03-22T13:58:10;12.60;;;6.20;;
60722;SDS011;46574;52.818;6.516;2024-03-22T14:00:37;13.27;;;6.45;;
60722;SDS011;46574;52.818;6.516;2024-03-22T14:03:03;11.77;;;6.35;;
60722;SDS011;46574;52.818;6.516;2024-03-22T14:05:30;10.75;;;6.72;;
60722;SDS011;46574;52.818;6.516;2024-03-22T14:07:56;14.45;;;7.00;;
60722;SDS011;46574;52.818;6.516;2024-03-22T14:10:22;12.15;;;7.15;;
60722;SDS011;46574;52.818;6.516;2024-03-22T14:12:50;14.43;;;7.90;;
60722;SDS011;46574;52.818;6.516;2024-03-22T14:15:15;13.27;;;8.27;;
60722;SDS011;46574;52.818;6.516;2024-03-22T14:17:41;17.40;;;8.75;;
60722;SDS011;46574;52.818;6.516;2024-03-22T14:20:07;15.48;;;9.00;;
60722;SDS011;46574;52.818;6.516;2024-03-22T14:22:39;16.75;;;8.50;;
60722;SDS011;46574;52.818;6.516;2024-03-22T14:25:06;15.10;;;8.82;;
60722;SDS011;46574;52.818;6.516;2024-03-22T14:27:35;15.57;;;8.70;;
60722;SDS011;46574;52.818;6.516;2024-03-22T14:30:02;16.90;;;8.27;;